• Join FlightAware (Why Join?)
  • Login
  • US Flag GB Flag 
05:12 EDT


 

Airport Tracker/Info


-or-


 

Live Flight TrackerFlight Track Log ✈ OPT429 ✈ 16-Jun-2014 ✈ KCRQ - KLAS

Flight Track Log - Related Links

Times and Time Zones

All times are in EDT time to prevent confusion due to time zone crossing. See the OPT429 flight status page for this flight to view local times or setup timezone preferences in your user account.

Time Position Orientation Groundspeed Altitude Reporting Facility
EDT Latitude Longitude Course Direction KTS MPH feet Rate Location/Type
22:21 33.1167 -117.3667 270° West 204 235 4,700  Level Southern California TRACON
22:22 33.1000 -117.4333 253° West 223 257 7,800 2,940 Climbing Southern California TRACON
22:23 33.0800 -117.5144 254° West 212 244 11,300 2,280 Climbing Los Angeles Center
22:24 33.0633 -117.5969 256° West 231 266 13,000 780 Climbing Los Angeles Center
22:25 33.1222 -117.6758 312° West 313 360 13,000 540 Level Los Angeles Center
22:26 33.1922 -117.7553 316° Northwest 339 390 14,200 960 Climbing Los Angeles Center
22:28 33.2606 -117.8322 317° Northwest 340 391 15,000 420 Climbing Los Angeles Center
22:29 33.3322 -117.9108 318° Northwest 344 396 15,100 480 Climbing Los Angeles Center
22:30 33.4331 -117.9383 347° North 370 426 16,000 780 Climbing Los Angeles Center
22:31 33.5311 -117.9628 348° North 368 423 16,800 1,440 Climbing Los Angeles Center
22:32 33.6472 -117.9917 348° North 361 415 19,000 1,920 Climbing Los Angeles Center
22:33 33.7461 -118.0092 352° North 362 417 20,800 1,800 Climbing Los Angeles Center
22:34 33.8450 -117.9778 15° North 375 432 22,700 1,740 Climbing Los Angeles Center
22:35 33.9314 -117.9094 33° Northeast 377 434 24,500 1,500 Climbing Los Angeles Center
22:36 34.0181 -117.8375 35° Northeast 377 434 25,800 1,320 Climbing Los Angeles Center
22:37 34.1183 -117.7322 41° Northeast 409 471 27,300 1,380 Climbing Los Angeles Center
22:38 34.1958 -117.6283 48° Northeast 414 476 28,700 1,320 Climbing Los Angeles Center
22:39 34.2756 -117.5214 48° Northeast 425 489 30,100 1,080 Climbing Los Angeles Center
22:40 34.3578 -117.4097 48° Northeast 441 507 31,000 420 Climbing Los Angeles Center
22:41 34.4447 -117.2908 48° Northeast 449 517 31,000  Level Los Angeles Center
22:42 34.5258 -117.1792 49° Northeast 448 516 31,000 -60 Level Los Angeles Center
22:43 34.6081 -117.0658 49° Northeast 448 516 30,900 -600 Descending Los Angeles Center
22:44 34.6911 -116.9522 48° Northeast 449 517 29,800 -1,200 Descending Los Angeles Center
22:45 34.7897 -116.8153 49° Northeast 451 519 28,500 -1,260 Descending Los Angeles Center
22:46 34.8714 -116.7019 49° Northeast 449 517 27,300 -1,140 Descending Los Angeles Center
22:47 34.9511 -116.5919 48° Northeast 438 504 26,200 -1,140 Descending Los Angeles Center
22:48 35.0325 -116.4886 46° Northeast 431 496 25,000 -1,080 Descending Los Angeles Center
22:49 35.1128 -116.3892 45° Northeast 419 482 24,000 -720 Descending Los Angeles Center
22:50 35.1897 -116.2903 46° Northeast 409 471 23,600 -1,200 Descending Los Angeles Center
22:51 35.2825 -116.1728 46° Northeast 404 465 21,600 -1,860 Descending Los Angeles Center
22:52 35.3636 -116.0717 45° Northeast 414 476 19,800 -1,560 Descending Los Angeles Center
22:53 35.4514 -115.9575 47° Northeast 418 481 18,300 -1,860 Descending Los Angeles Center
22:54 35.4992 -115.9083 40° Northeast 426 490 16,800 -2,160 Descending Los Angeles Center
22:54 35.5156 -115.8761 58° Northeast 410 472 16,400 -1,620 Descending Los Angeles Center
22:55 35.5753 -115.8103 42° Northeast 396 456 15,100 -1,860 Descending Los Angeles Center
22:55 35.6075 -115.7628 50° Northeast 395 455 14,500 -1,680 Descending Los Angeles Center
22:56 35.6381 -115.7294 42° Northeast 382 440 13,800 -1,500 Descending Los Angeles Center
22:56 35.6792 -115.6717 49° Northeast 378 435 13,000 -540 Descending Los Angeles Center
22:57 35.7458 -115.5894 45° Northeast 335 386 13,000  Level Los Angeles Center
22:58 35.7844 -115.5767 15° North 304 350 13,000  Level Los Angeles Center
22:58 35.8267 -115.5708 North 298 343 13,000  Level Los Angeles Center
22:59 35.8672 -115.5708 360° North 291 335 13,000  Level Los Angeles Center
22:59 35.9175 -115.5647 North 300 345 13,000  Level Los Angeles Center
23:00 35.9511 -115.5597 North 304 350 13,000 -540 Level Los Angeles Center
23:00 35.9883 -115.5092 48° Northeast 329 379 12,500 -1,020 Descending Los Angeles Center
23:01 36.0033 -115.4606 69° East 344 396 12,000 -1,200 Descending Los Angeles Center
23:01 36.0222 -115.4019 68° East 333 383 11,300 -1,140 Descending Los Angeles Center
23:02 36.0286 -115.3672 77° East 340 391 11,000 -1,320 Descending Los Angeles Center
23:03 36.0244 -115.2872 94° East 303 349 10,000 -1,260 Descending Los Angeles Center
23:03 36.0217 -115.2553 96° East 252 290 9,600 -1,020 Descending Los Angeles Center
23:04 36.0189 -115.2039 94° East 246 283 9,000 -900 Descending Los Angeles Center
23:04 36.0161 -115.1800 98° East 232 267 8,800 -780 Descending Los Angeles Center
23:05 36.0381 -115.1219 65° Northeast 241 277 8,200 -840 Descending Los Angeles Center
23:05 36.0561 -115.1056 36° Northeast 223 257 7,900 -1,140 Descending Los Angeles Center
23:06 36.0892 -115.0831 29° Northeast 221 254 7,100 -1,320 Descending Los Angeles Center
23:06 36.1053 -115.0733 26° Northeast 222 255 6,700 -1,560 Descending Los Angeles Center
23:07 36.1503 -115.0544 19° North 223 257 5,500 -1,680 Descending Los Angeles Center
23:07 36.1578 -115.0667 307° West 199 229 5,000 -1,860 Descending Los Angeles Center
23:08 36.1594 -115.1042 273° West 151 174 3,600 -1,680 Descending Los Angeles Center
23:08 36.1572 -115.1147 255° West 124 143 3,300 -660 Descending Los Angeles Center
23:09 36.1339 -115.1358 216° Southwest 108 124 2,900 -540 Descending Los Angeles Center
23:10 36.1072 -115.1525 207° Southwest 95 109 2,300 -600 Descending Los Angeles Center
23:12 36.0801 -115.1523 97° East  Level Estimated